Time;durP1;ratioP1;P1;durP2;ratioP2;P2;SDS_P1;SDS_P2;PMS_P1;PMS_P2;Temp;Humidity;BMP_temperature;BMP_pressure;BME280_temperature;BME280_humidity;BME280_pressure;Samples;Min_cycle;Max_cycle;Signal;HPM_P1;HPM_P2
2024/04/08 00:00:07;;;;;;;10.75;3.40;;;;;;;;;;4437728;32;20026;-67
2024/04/08 00:02:32;;;;;;;21.30;5.43;;;;;;;;;;4435392;32;20017;-66
2024/04/08 00:04:58;;;;;;;15.07;4.47;;;;;;;;;;4437170;32;20026;-66
2024/04/08 00:07:23;;;;;;;17.90;4.30;;;;;;;;;;4436255;32;20025;-67
2024/04/08 00:09:48;;;;;;;12.98;4.15;;;;;;;;;;4447684;32;20052;-66
2024/04/08 00:12:13;;;;;;;11.12;3.83;;;;;;;;;;4440487;32;20025;-67
2024/04/08 00:14:39;;;;;;;8.32;3.50;;;;;;;;;;4437390;32;20109;-67
2024/04/08 00:17:04;;;;;;;11.57;4.72;;;;;;;;;;4438045;32;20373;-66
2024/04/08 00:19:29;;;;;;;14.75;4.00;;;;;;;;;;4437020;32;20067;-66
2024/04/08 00:21:54;;;;;;;18.05;4.65;;;;;;;;;;4436411;32;20029;-66
2024/04/08 00:24:19;;;;;;;14.20;5.05;;;;;;;;;;4438061;32;20475;-66
2024/04/08 00:26:45;;;;;;;17.35;5.47;;;;;;;;;;4437303;32;20053;-67
2024/04/08 00:29:10;;;;;;;15.38;5.60;;;;;;;;;;4423287;32;20052;-66
2024/04/08 00:31:35;;;;;;;13.57;5.53;;;;;;;;;;4437977;32;20134;-66
2024/04/08 00:34:00;;;;;;;19.98;6.10;;;;;;;;;;4436670;32;20438;-67
2024/04/08 00:36:25;;;;;;;15.27;5.05;;;;;;;;;;4422390;32;20029;-66
2024/04/08 00:38:51;;;;;;;18.23;6.18;;;;;;;;;;4436244;32;20056;-67
2024/04/08 00:41:16;;;;;;;22.67;5.32;;;;;;;;;;4437413;32;20402;-67
2024/04/08 00:43:41;;;;;;;14.13;4.78;;;;;;;;;;4440458;32;20021;-67
2024/04/08 00:46:06;;;;;;;18.58;5.87;;;;;;;;;;4452630;32;20390;-66
2024/04/08 00:48:32;;;;;;;13.55;5.65;;;;;;;;;;4453052;32;20078;-65
2024/04/08 00:50:57;;;;;;;15.30;6.30;;;;;;;;;;4451623;32;20048;-67
2024/04/08 00:53:23;;;;;;;22.40;6.43;;;;;;;;;;4453246;32;20025;-67
2024/04/08 00:55:49;;;;;;;11.70;5.55;;;;;;;;;;4452047;32;20398;-66
2024/04/08 00:58:16;;;;;;;16.30;7.05;;;;;;;;;;4452815;32;20101;-66
2024/04/08 01:00:41;;;;;;;17.77;6.30;;;;;;;;;;4451785;32;20060;-66
2024/04/08 01:03:06;;;;;;;15.05;5.70;;;;;;;;;;4451114;32;20021;-66
2024/04/08 01:05:33;;;;;;;13.82;6.07;;;;;;;;;;4452514;32;20025;-66
2024/04/08 01:07:59;;;;;;;13.15;5.95;;;;;;;;;;4451278;32;20096;-65
2024/04/08 01:10:24;;;;;;;12.37;4.70;;;;;;;;;;4451126;32;20357;-65
2024/04/08 01:12:49;;;;;;;16.60;4.95;;;;;;;;;;4451566;32;20348;-66
2024/04/08 01:15:15;;;;;;;13.02;5.45;;;;;;;;;;4451063;32;20021;-65
2024/04/08 01:17:40;;;;;;;14.23;5.45;;;;;;;;;;4450645;32;20101;-66
2024/04/08 01:20:06;;;;;;;15.32;5.95;;;;;;;;;;4451561;32;20033;-65
2024/04/08 01:22:32;;;;;;;16.50;6.20;;;;;;;;;;4452326;32;20116;-65
2024/04/08 01:25:04;;;;;;;19.05;6.12;;;;;;;;;;4431262;32;20025;-67
2024/04/08 01:27:29;;;;;;;20.45;6.20;;;;;;;;;;4436086;32;20045;-67
2024/04/08 01:29:54;;;;;;;11.52;5.12;;;;;;;;;;4434913;32;20384;-67
2024/04/08 01:32:20;;;;;;;13.27;5.00;;;;;;;;;;4435633;32;20021;-66
2024/04/08 01:34:45;;;;;;;16.42;5.57;;;;;;;;;;4436677;32;20060;-66
2024/04/08 01:37:10;;;;;;;16.33;5.03;;;;;;;;;;4435663;32;20413;-66
2024/04/08 01:39:36;;;;;;;17.23;4.97;;;;;;;;;;4435554;32;20025;-66
2024/04/08 01:42:01;;;;;;;15.52;4.65;;;;;;;;;;4421683;32;20029;-66
2024/04/08 01:44:26;;;;;;;8.93;4.32;;;;;;;;;;4436659;32;20352;-66
2024/04/08 01:46:51;;;;;;;15.00;5.43;;;;;;;;;;4434159;32;20403;-67
2024/04/08 01:49:16;;;;;;;10.85;4.62;;;;;;;;;;4436589;32;20026;-66
2024/04/08 01:51:42;;;;;;;10.80;4.07;;;;;;;;;;4436333;32;20411;-66
2024/04/08 01:54:12;;;;;;;13.30;4.30;;;;;;;;;;4436697;32;20025;-66
2024/04/08 01:56:37;;;;;;;14.27;4.32;;;;;;;;;;4435014;32;20025;-66
2024/04/08 01:59:02;;;;;;;10.63;4.60;;;;;;;;;;4436519;32;20115;-65
2024/04/08 02:01:27;;;;;;;13.68;4.22;;;;;;;;;;4437115;32;20444;-66
2024/04/08 02:03:53;;;;;;;14.00;4.70;;;;;;;;;;4451314;32;20063;-66
2024/04/08 02:06:18;;;;;;;14.27;4.78;;;;;;;;;;4446754;32;20487;-67
2024/04/08 02:08:43;;;;;;;14.65;4.62;;;;;;;;;;4434581;32;20064;-67
2024/04/08 02:11:08;;;;;;;13.13;4.43;;;;;;;;;;4435205;32;20041;-67
2024/04/08 02:13:33;;;;;;;13.68;4.87;;;;;;;;;;4436784;32;20045;-66
2024/04/08 02:15:58;;;;;;;11.40;4.93;;;;;;;;;;4435161;32;20061;-67
2024/04/08 02:18:24;;;;;;;9.98;4.30;;;;;;;;;;4435869;32;20052;-66
2024/04/08 02:20:49;;;;;;;14.23;4.60;;;;;;;;;;4435663;32;20398;-65
2024/04/08 02:23:15;;;;;;;14.50;4.97;;;;;;;;;;4448233;32;20071;-65
2024/04/08 02:25:44;;;;;;;13.68;5.22;;;;;;;;;;4450785;32;20025;-65
2024/04/08 02:28:09;;;;;;;11.25;5.70;;;;;;;;;;4440320;32;20034;-66
2024/04/08 02:30:35;;;;;;;13.70;6.62;;;;;;;;;;4434288;32;20021;-66
2024/04/08 02:33:01;;;;;;;14.00;6.78;;;;;;;;;;4435791;32;20018;-66
2024/04/08 02:35:26;;;;;;;12.05;5.78;;;;;;;;;;4435408;32;20021;-66
2024/04/08 02:37:51;;;;;;;17.00;7.03;;;;;;;;;;4434051;32;20026;-65
2024/04/08 02:40:16;;;;;;;11.10;5.95;;;;;;;;;;4435950;32;20449;-65
2024/04/08 02:42:42;;;;;;;13.75;7.05;;;;;;;;;;4433394;32;20463;-66
2024/04/08 02:45:07;;;;;;;17.50;8.75;;;;;;;;;;4426091;32;20052;-65
2024/04/08 02:47:32;;;;;;;13.27;8.40;;;;;;;;;;4421080;32;20038;-66
2024/04/08 02:49:57;;;;;;;18.73;9.18;;;;;;;;;;4447295;32;20021;-66
2024/04/08 02:52:22;;;;;;;14.05;7.85;;;;;;;;;;4450622;32;20371;-66
2024/04/08 02:54:48;;;;;;;11.18;8.50;;;;;;;;;;4449636;32;20462;-65
2024/04/08 02:57:13;;;;;;;15.68;8.80;;;;;;;;;;4451369;32;20051;-65
2024/04/08 02:59:38;;;;;;;12.77;9.70;;;;;;;;;;4453911;32;20030;-66
2024/04/08 03:02:03;;;;;;;12.48;9.02;;;;;;;;;;4454290;32;20029;-66
2024/04/08 03:04:29;;;;;;;14.52;10.32;;;;;;;;;;4452980;32;20021;-65
2024/04/08 03:06:54;;;;;;;23.55;9.77;;;;;;;;;;4453109;32;20126;-66
2024/04/08 03:09:19;;;;;;;22.67;10.70;;;;;;;;;;4454148;32;20068;-67
2024/04/08 03:11:44;;;;;;;13.68;10.85;;;;;;;;;;4452923;32;20242;-67
2024/04/08 03:14:10;;;;;;;15.57;11.70;;;;;;;;;;4441137;32;20411;-65
2024/04/08 03:16:36;;;;;;;12.82;10.57;;;;;;;;;;4438260;32;20061;-66
2024/04/08 03:19:01;;;;;;;17.95;11.77;;;;;;;;;;4437013;32;20053;-66
2024/04/08 03:21:26;;;;;;;15.82;12.10;;;;;;;;;;4436587;32;20029;-65
2024/04/08 03:23:51;;;;;;;16.83;12.30;;;;;;;;;;4438994;32;20089;-66
2024/04/08 03:26:17;;;;;;;18.45;12.55;;;;;;;;;;4438653;32;20091;-66
2024/04/08 03:28:42;;;;;;;16.20;12.85;;;;;;;;;;4447565;32;20071;-66
2024/04/08 03:31:08;;;;;;;19.23;12.85;;;;;;;;;;4453764;32;20025;-66
2024/04/08 03:33:33;;;;;;;14.98;12.20;;;;;;;;;;4452016;32;20022;-66
2024/04/08 03:36:00;;;;;;;17.15;13.57;;;;;;;;;;4453742;32;20033;-67
2024/04/08 03:38:25;;;;;;;17.85;12.85;;;;;;;;;;4453843;32;20349;-65
2024/04/08 03:41:00;;;;;;;18.73;13.62;;;;;;;;;;4453942;32;20021;-65
2024/04/08 03:43:26;;;;;;;16.58;13.57;;;;;;;;;;4447715;32;20064;-65
2024/04/08 03:45:51;;;;;;;19.52;13.52;;;;;;;;;;4448320;32;20052;-66
2024/04/08 03:48:16;;;;;;;22.20;14.18;;;;;;;;;;4451252;32;20470;-65
2024/04/08 03:50:42;;;;;;;18.77;13.20;;;;;;;;;;4453705;32;20029;-65
2024/04/08 03:53:07;;;;;;;17.17;13.23;;;;;;;;;;4452520;32;20044;-65
2024/04/08 03:55:32;;;;;;;24.67;13.90;;;;;;;;;;4437896;32;20447;-65
2024/04/08 03:57:57;;;;;;;18.62;14.18;;;;;;;;;;4453438;32;20092;-65
2024/04/08 04:00:23;;;;;;;21.98;14.18;;;;;;;;;;4438153;32;20094;-65
2024/04/08 04:02:48;;;;;;;25.25;14.52;;;;;;;;;;4439657;32;20107;-66
2024/04/08 04:05:14;;;;;;;19.77;13.43;;;;;;;;;;4452755;32;20037;-65
2024/04/08 04:07:39;;;;;;;23.80;14.70;;;;;;;;;;4452703;32;20025;-64
2024/04/08 04:10:04;;;;;;;16.47;11.90;;;;;;;;;;4451008;32;20066;-65
2024/04/08 04:12:41;;;;;;;24.83;13.75;;;;;;;;;;4452161;32;20133;-65
2024/04/08 04:15:11;;;;;;;21.73;12.37;;;;;;;;;;4453774;32;20026;-66
2024/04/08 04:17:36;;;;;;;22.35;13.48;;;;;;;;;;4452987;32;20424;-65
2024/04/08 04:20:04;;;;;;;16.60;12.07;;;;;;;;;;4451747;32;20041;-65
2024/04/08 04:22:29;;;;;;;17.48;12.82;;;;;;;;;;4445432;32;20037;-65
2024/04/08 04:24:54;;;;;;;20.27;13.43;;;;;;;;;;4437991;32;20056;-65
2024/04/08 04:27:19;;;;;;;19.33;13.52;;;;;;;;;;4437386;32;20021;-65
2024/04/08 04:29:45;;;;;;;23.10;13.93;;;;;;;;;;4435497;32;20021;-66
2024/04/08 04:32:10;;;;;;;21.55;12.98;;;;;;;;;;4434998;32;20043;-65
2024/04/08 04:34:35;;;;;;;22.65;13.00;;;;;;;;;;4437474;32;20076;-66
2024/04/08 04:37:00;;;;;;;15.65;11.68;;;;;;;;;;4434669;32;20026;-67
2024/04/08 04:39:26;;;;;;;24.98;12.98;;;;;;;;;;4423267;32;20091;-64
2024/04/08 04:41:53;;;;;;;17.15;13.20;;;;;;;;;;4437262;32;20033;-65
2024/04/08 04:44:19;;;;;;;16.37;13.13;;;;;;;;;;4435684;32;20056;-65
2024/04/08 04:46:44;;;;;;;16.15;12.07;;;;;;;;;;4435624;32;20041;-66
2024/04/08 04:49:09;;;;;;;17.40;10.90;;;;;;;;;;4437653;32;20055;-65
2024/04/08 04:51:34;;;;;;;17.42;11.48;;;;;;;;;;4437275;32;20018;-66
2024/04/08 04:54:00;;;;;;;15.60;10.93;;;;;;;;;;4421758;32;20053;-66
2024/04/08 04:56:25;;;;;;;12.55;10.32;;;;;;;;;;4436389;32;20094;-65
2024/04/08 04:58:50;;;;;;;16.62;11.50;;;;;;;;;;4435958;32;20413;-65
2024/04/08 05:01:16;;;;;;;12.07;10.18;;;;;;;;;;4437567;32;20465;-66
2024/04/08 05:03:41;;;;;;;22.02;11.10;;;;;;;;;;4436217;32;20381;-65
2024/04/08 05:06:06;;;;;;;21.10;10.65;;;;;;;;;;4436232;32;20021;-65
2024/04/08 05:08:32;;;;;;;12.32;9.75;;;;;;;;;;4435734;32;20121;-67
2024/04/08 05:10:57;;;;;;;11.90;9.77;;;;;;;;;;4435448;32;20445;-65
2024/04/08 05:13:22;;;;;;;13.00;9.75;;;;;;;;;;4436712;32;20094;-65
2024/04/08 05:15:57;;;;;;;19.15;10.57;;;;;;;;;;4435996;32;20055;-65
2024/04/08 05:18:22;;;;;;;14.68;9.43;;;;;;;;;;4437604;32;20037;-66
2024/04/08 05:20:48;;;;;;;13.62;9.25;;;;;;;;;;4435429;32;20052;-65
2024/04/08 05:23:14;;;;;;;15.45;9.85;;;;;;;;;;4435522;32;20387;-65
2024/04/08 05:25:39;;;;;;;13.27;9.30;;;;;;;;;;4436867;32;20440;-65
2024/04/08 05:28:05;;;;;;;15.83;11.00;;;;;;;;;;4434706;32;20200;-65
2024/04/08 05:30:30;;;;;;;13.18;9.73;;;;;;;;;;4435457;32;20025;-66
2024/04/08 05:32:55;;;;;;;15.43;9.73;;;;;;;;;;4436169;32;20083;-65
2024/04/08 05:35:21;;;;;;;15.67;10.50;;;;;;;;;;4433941;32;20052;-65
2024/04/08 05:37:46;;;;;;;17.35;10.60;;;;;;;;;;4436207;32;20156;-66
2024/04/08 05:40:13;;;;;;;13.38;10.32;;;;;;;;;;4434861;32;20040;-65
2024/04/08 05:42:38;;;;;;;17.30;9.68;;;;;;;;;;4434415;32;20022;-65
2024/04/08 05:45:05;;;;;;;11.73;9.25;;;;;;;;;;4435930;32;20048;-66
2024/04/08 05:47:31;;;;;;;14.75;9.45;;;;;;;;;;4434603;32;20042;-65
2024/04/08 05:49:56;;;;;;;12.82;9.27;;;;;;;;;;4436397;32;20131;-64
2024/04/08 05:52:21;;;;;;;15.82;9.60;;;;;;;;;;4435013;32;20164;-64
2024/04/08 05:54:46;;;;;;;14.80;8.80;;;;;;;;;;4436715;32;20324;-66
2024/04/08 05:57:11;;;;;;;12.95;9.05;;;;;;;;;;4428063;32;20082;-65
2024/04/08 05:59:37;;;;;;;12.05;8.63;;;;;;;;;;4435823;32;20026;-65
2024/04/08 06:02:02;;;;;;;9.48;7.40;;;;;;;;;;4436430;32;20040;-65
2024/04/08 06:04:27;;;;;;;9.27;7.55;;;;;;;;;;4435495;32;20021;-65
2024/04/08 06:06:52;;;;;;;10.32;7.20;;;;;;;;;;4436167;32;20021;-66
2024/04/08 06:09:18;;;;;;;11.32;7.75;;;;;;;;;;4434690;32;20402;-65
2024/04/08 06:11:43;;;;;;;7.75;6.57;;;;;;;;;;4428273;32;20020;-65
2024/04/08 06:14:09;;;;;;;11.32;7.18;;;;;;;;;;4449958;32;20025;-65
2024/04/08 06:16:34;;;;;;;11.45;6.85;;;;;;;;;;4436996;32;20051;-65
2024/04/08 06:18:59;;;;;;;12.02;7.07;;;;;;;;;;4451499;32;20095;-64
2024/04/08 06:21:24;;;;;;;10.27;6.70;;;;;;;;;;4451753;32;20074;-64
2024/04/08 06:23:49;;;;;;;8.38;6.72;;;;;;;;;;4450246;32;20021;-66
2024/04/08 06:26:15;;;;;;;10.25;6.87;;;;;;;;;;4449857;32;20026;-67
2024/04/08 06:28:40;;;;;;;13.65;6.87;;;;;;;;;;4434536;32;20428;-65
2024/04/08 06:31:05;;;;;;;9.25;6.18;;;;;;;;;;4435129;32;20053;-66
2024/04/08 06:33:32;;;;;;;10.30;7.32;;;;;;;;;;4436760;32;20437;-66
2024/04/08 06:35:57;;;;;;;9.80;6.32;;;;;;;;;;4437393;32;20335;-65
2024/04/08 06:38:22;;;;;;;10.02;6.20;;;;;;;;;;4436322;32;20044;-64
2024/04/08 06:40:48;;;;;;;11.75;6.07;;;;;;;;;;4438118;32;20017;-66
2024/04/08 06:43:13;;;;;;;13.32;6.68;;;;;;;;;;4437236;32;20050;-65
2024/04/08 06:45:38;;;;;;;9.32;6.28;;;;;;;;;;4437652;32;20068;-65
2024/04/08 06:48:03;;;;;;;13.00;8.98;;;;;;;;;;4435761;32;20037;-65
2024/04/08 06:50:29;;;;;;;9.63;6.47;;;;;;;;;;4436325;32;20413;-66
2024/04/08 06:52:54;;;;;;;9.40;7.00;;;;;;;;;;4438376;32;20029;-65
2024/04/08 06:55:19;;;;;;;14.87;7.87;;;;;;;;;;4453399;32;20427;-65
2024/04/08 06:57:45;;;;;;;10.43;6.75;;;;;;;;;;4433173;32;20377;-66
2024/04/08 07:00:10;;;;;;;10.13;6.70;;;;;;;;;;4446342;32;20379;-65
2024/04/08 07:02:36;;;;;;;14.13;7.07;;;;;;;;;;4454347;32;20442;-65
2024/04/08 07:05:02;;;;;;;9.73;6.70;;;;;;;;;;4447882;32;20048;-65
2024/04/08 07:07:27;;;;;;;11.38;6.62;;;;;;;;;;4442379;32;20109;-64
2024/04/08 07:09:52;;;;;;;18.27;8.35;;;;;;;;;;4435151;32;20033;-68
2024/04/08 07:12:17;;;;;;;9.25;7.12;;;;;;;;;;4438908;32;20038;-65
2024/04/08 07:14:43;;;;;;;10.32;7.50;;;;;;;;;;4438795;32;20021;-65
2024/04/08 07:17:08;;;;;;;9.80;7.15;;;;;;;;;;4439481;32;20056;-65
2024/04/08 07:19:33;;;;;;;10.52;7.35;;;;;;;;;;4439141;32;20081;-64
2024/04/08 07:21:58;;;;;;;11.00;7.12;;;;;;;;;;4436597;32;20026;-65
2024/04/08 07:24:23;;;;;;;12.65;6.93;;;;;;;;;;4437275;32;20135;-66
2024/04/08 07:26:49;;;;;;;11.93;8.07;;;;;;;;;;4436223;32;20517;-65
2024/04/08 07:29:15;;;;;;;12.57;8.13;;;;;;;;;;4436817;32;20072;-65
2024/04/08 07:31:40;;;;;;;9.77;6.90;;;;;;;;;;4436992;32;20034;-65
2024/04/08 07:34:05;;;;;;;12.43;8.73;;;;;;;;;;4438548;32;20053;-65
2024/04/08 07:36:30;;;;;;;15.40;8.25;;;;;;;;;;4438441;32;20051;-65
2024/04/08 07:38:56;;;;;;;12.77;7.37;;;;;;;;;;4436517;32;20437;-64
2024/04/08 07:41:21;;;;;;;11.55;7.32;;;;;;;;;;4438457;32;20086;-65
2024/04/08 07:43:47;;;;;;;13.95;6.97;;;;;;;;;;4437255;32;20328;-66
2024/04/08 07:46:12;;;;;;;9.88;6.87;;;;;;;;;;4437506;32;20022;-65
2024/04/08 07:48:37;;;;;;;10.90;7.35;;;;;;;;;;4446005;32;20346;-65
2024/04/08 07:51:02;;;;;;;11.10;7.05;;;;;;;;;;4451731;32;20029;-64
2024/04/08 07:53:28;;;;;;;9.63;6.55;;;;;;;;;;4448455;32;20021;-65
2024/04/08 07:55:53;;;;;;;11.52;7.20;;;;;;;;;;4441385;32;20026;-65
2024/04/08 07:58:18;;;;;;;10.10;7.37;;;;;;;;;;4436154;32;20025;-66
2024/04/08 08:00:44;;;;;;;10.65;7.10;;;;;;;;;;4438389;32;20052;-67
2024/04/08 08:03:09;;;;;;;12.23;8.25;;;;;;;;;;4440055;32;20025;-65
2024/04/08 08:05:34;;;;;;;10.30;7.80;;;;;;;;;;4440231;32;20021;-66
2024/04/08 08:08:02;;;;;;;11.18;7.40;;;;;;;;;;4447658;32;20120;-66
2024/04/08 08:10:28;;;;;;;8.52;6.65;;;;;;;;;;4437144;32;20472;-66
2024/04/08 08:12:53;;;;;;;11.63;7.12;;;;;;;;;;4437543;32;20083;-66
2024/04/08 08:15:18;;;;;;;8.73;6.82;;;;;;;;;;4448152;32;20029;-66
2024/04/08 08:17:43;;;;;;;9.65;7.18;;;;;;;;;;4444558;32;20182;-65
2024/04/08 08:20:09;;;;;;;17.95;8.80;;;;;;;;;;4436356;32;20130;-65
2024/04/08 08:22:34;;;;;;;10.40;7.95;;;;;;;;;;4439482;32;20052;-65
2024/04/08 08:24:59;;;;;;;12.50;7.32;;;;;;;;;;4451702;32;20029;-65
2024/04/08 08:27:24;;;;;;;10.00;6.30;;;;;;;;;;4452434;32;20162;-65
2024/04/08 08:29:50;;;;;;;10.43;7.07;;;;;;;;;;4451375;32;20202;-64
2024/04/08 08:32:15;;;;;;;14.77;6.62;;;;;;;;;;4438823;32;20022;-65
2024/04/08 08:34:41;;;;;;;8.18;6.07;;;;;;;;;;4453149;32;20022;-66
2024/04/08 08:37:06;;;;;;;13.07;5.45;;;;;;;;;;4452797;32;20350;-65
2024/04/08 08:39:37;;;;;;;12.10;7.55;;;;;;;;;;4453126;32;20108;-66
2024/04/08 08:42:04;;;;;;;6.97;5.25;;;;;;;;;;4452839;32;20354;-63
2024/04/08 08:44:32;;;;;;;10.73;5.85;;;;;;;;;;4433548;32;20093;-63
2024/04/08 08:46:58;;;;;;;9.55;5.75;;;;;;;;;;4450644;32;20064;-62
2024/04/08 08:49:23;;;;;;;12.55;6.37;;;;;;;;;;4452697;32;20053;-62
2024/04/08 08:51:48;;;;;;;10.75;7.37;;;;;;;;;;4452752;32;20033;-63
2024/04/08 08:54:14;;;;;;;11.55;6.30;;;;;;;;;;4445841;32;20098;-63
2024/04/08 08:56:40;;;;;;;11.45;7.22;;;;;;;;;;4441824;32;20025;-63
2024/04/08 08:59:08;;;;;;;7.57;5.70;;;;;;;;;;4443034;32;20021;-64
2024/04/08 09:01:33;;;;;;;10.52;5.93;;;;;;;;;;4447333;32;20405;-64
2024/04/08 09:04:00;;;;;;;6.60;5.10;;;;;;;;;;4440830;32;20044;-62
2024/04/08 09:06:25;;;;;;;7.85;5.68;;;;;;;;;;4437668;32;20115;-64
2024/04/08 09:08:50;;;;;;;9.65;5.12;;;;;;;;;;4442580;32;20449;-63
2024/04/08 09:11:16;;;;;;;8.32;6.32;;;;;;;;;;4435313;32;20417;-64
2024/04/08 09:13:41;;;;;;;12.18;6.05;;;;;;;;;;4439251;32;20060;-62
2024/04/08 09:16:06;;;;;;;8.02;5.62;;;;;;;;;;4451317;32;20334;-63
2024/04/08 09:18:32;;;;;;;12.25;6.00;;;;;;;;;;4436742;32;20029;-64
2024/04/08 09:20:58;;;;;;;14.23;7.43;;;;;;;;;;4451582;32;20068;-62
2024/04/08 09:23:25;;;;;;;9.10;5.05;;;;;;;;;;4451321;32;20425;-63
2024/04/08 09:25:50;;;;;;;8.15;5.80;;;;;;;;;;4435065;32;20364;-63
2024/04/08 09:28:15;;;;;;;6.35;5.15;;;;;;;;;;4436008;32;20021;-63
2024/04/08 09:30:41;;;;;;;8.85;5.97;;;;;;;;;;4436438;32;20370;-63
2024/04/08 09:33:08;;;;;;;9.27;6.22;;;;;;;;;;4436536;32;20065;-63
2024/04/08 09:35:37;;;;;;;9.68;7.03;;;;;;;;;;4450675;32;20415;-62
2024/04/08 09:38:02;;;;;;;9.23;6.62;;;;;;;;;;4451240;32;20056;-64
2024/04/08 09:40:28;;;;;;;11.75;7.62;;;;;;;;;;4451130;32;20029;-63
2024/04/08 09:42:54;;;;;;;9.52;6.45;;;;;;;;;;4451630;32;20029;-63
2024/04/08 09:45:19;;;;;;;11.02;8.73;;;;;;;;;;4451090;32;20030;-63
2024/04/08 09:47:45;;;;;;;11.57;9.00;;;;;;;;;;4448952;32;20477;-63
2024/04/08 09:50:11;;;;;;;9.32;7.45;;;;;;;;;;4436309;32;20101;-63
2024/04/08 09:52:37;;;;;;;9.73;7.10;;;;;;;;;;4435087;32;20085;-64
2024/04/08 09:55:02;;;;;;;7.80;6.10;;;;;;;;;;4444205;32;20056;-65
2024/04/08 09:57:29;;;;;;;8.25;6.62;;;;;;;;;;4432602;32;20071;-64
2024/04/08 09:59:56;;;;;;;7.93;6.53;;;;;;;;;;4434564;32;20029;-63
2024/04/08 10:02:26;;;;;;;8.13;7.30;;;;;;;;;;4436758;32;20041;-62
2024/04/08 10:04:56;;;;;;;10.18;9.18;;;;;;;;;;4451306;32;20028;-63
2024/04/08 10:07:21;;;;;;;10.43;6.62;;;;;;;;;;4436109;32;20025;-63
2024/04/08 10:09:46;;;;;;;8.77;6.40;;;;;;;;;;4436660;32;20033;-63
2024/04/08 10:12:12;;;;;;;6.45;5.70;;;;;;;;;;4441494;32;20048;-62
2024/04/08 10:14:37;;;;;;;6.67;5.60;;;;;;;;;;4441417;32;20025;-64
2024/04/08 10:17:02;;;;;;;8.45;5.72;;;;;;;;;;4449997;32;20124;-63
2024/04/08 10:19:27;;;;;;;9.38;6.22;;;;;;;;;;4444097;32;20052;-64
2024/04/08 10:21:53;;;;;;;8.95;6.07;;;;;;;;;;4434960;32;20362;-64
2024/04/08 10:24:28;;;;;;;7.37;5.32;;;;;;;;;;4436085;32;20026;-63
2024/04/08 10:27:03;;;;;;;5.53;4.22;;;;;;;;;;4435726;32;20123;-64
2024/04/08 10:29:29;;;;;;;8.10;4.50;;;;;;;;;;4432524;32;20396;-64
2024/04/08 10:31:54;;;;;;;7.45;4.62;;;;;;;;;;4446026;32;20128;-63
2024/04/08 10:34:20;;;;;;;8.50;5.20;;;;;;;;;;4435031;32;20037;-64
2024/04/08 10:36:45;;;;;;;9.32;4.68;;;;;;;;;;4433668;32;20521;-63
2024/04/08 10:39:10;;;;;;;8.43;5.50;;;;;;;;;;4434069;32;20045;-64
2024/04/08 10:41:35;;;;;;;10.82;4.20;;;;;;;;;;4434650;32;20095;-63
2024/04/08 10:44:01;;;;;;;5.43;3.83;;;;;;;;;;4436135;32;20338;-64
2024/04/08 10:46:27;;;;;;;6.32;4.05;;;;;;;;;;4434890;32;20197;-63
2024/04/08 10:48:53;;;;;;;7.97;5.03;;;;;;;;;;4434772;32;20041;-64
2024/04/08 10:51:18;;;;;;;7.87;4.12;;;;;;;;;;4435933;32;20371;-63
2024/04/08 10:53:43;;;;;;;7.07;3.80;;;;;;;;;;4437609;32;20026;-64
2024/04/08 10:56:08;;;;;;;6.40;4.30;;;;;;;;;;4444970;32;20021;-64
2024/04/08 10:58:34;;;;;;;9.45;4.65;;;;;;;;;;4444229;32;20021;-64
2024/04/08 11:00:59;;;;;;;9.52;4.30;;;;;;;;;;4435787;32;20369;-63
2024/04/08 11:03:24;;;;;;;5.97;3.30;;;;;;;;;;4435371;32;20060;-63
2024/04/08 11:05:50;;;;;;;7.80;4.12;;;;;;;;;;4436004;32;20030;-63
2024/04/08 11:08:16;;;;;;;6.28;3.45;;;;;;;;;;4435657;32;20475;-63
2024/04/08 11:10:47;;;;;;;6.20;3.55;;;;;;;;;;4435683;32;20030;-63
2024/04/08 11:13:12;;;;;;;6.80;3.33;;;;;;;;;;4448241;32;20049;-63
2024/04/08 11:15:39;;;;;;;6.85;4.30;;;;;;;;;;4449702;32;20050;-63
2024/04/08 11:18:08;;;;;;;7.62;3.47;;;;;;;;;;4449561;32;20033;-63
2024/04/08 11:20:33;;;;;;;9.52;3.78;;;;;;;;;;4453304;32;20300;-65
2024/04/08 11:23:02;;;;;;;7.00;3.87;;;;;;;;;;4453004;32;20082;-63
2024/04/08 11:25:27;;;;;;;4.85;3.45;;;;;;;;;;4437664;32;20075;-65
2024/04/08 11:27:54;;;;;;;5.30;3.90;;;;;;;;;;4451823;32;20037;-64
2024/04/08 11:30:19;;;;;;;6.78;3.80;;;;;;;;;;4452252;32;20441;-65
2024/04/08 11:32:44;;;;;;;5.18;3.70;;;;;;;;;;4451847;32;20057;-63
2024/04/08 11:35:10;;;;;;;4.62;3.25;;;;;;;;;;4450529;32;20109;-63
2024/04/08 11:37:35;;;;;;;4.82;3.20;;;;;;;;;;4452632;32;20025;-64
2024/04/08 11:40:01;;;;;;;10.93;4.20;;;;;;;;;;4438584;32;20068;-62
2024/04/08 11:42:26;;;;;;;6.90;3.58;;;;;;;;;;4452127;32;20083;-63
2024/04/08 11:44:59;;;;;;;6.78;3.12;;;;;;;;;;4452306;32;20022;-65
2024/04/08 11:47:24;;;;;;;8.55;4.60;;;;;;;;;;4439144;32;20034;-63
2024/04/08 11:49:49;;;;;;;6.53;3.35;;;;;;;;;;4453826;32;20346;-62
2024/04/08 11:52:15;;;;;;;5.25;3.25;;;;;;;;;;4453062;32;20088;-63
2024/04/08 11:54:43;;;;;;;6.32;3.42;;;;;;;;;;4450013;32;20075;-63
2024/04/08 11:57:08;;;;;;;6.00;3.62;;;;;;;;;;4453453;32;20116;-63
2024/04/08 11:59:33;;;;;;;9.23;3.87;;;;;;;;;;4453604;32;20022;-63
2024/04/08 12:01:59;;;;;;;7.63;3.57;;;;;;;;;;4453473;32;20026;-64
2024/04/08 12:04:24;;;;;;;6.07;3.53;;;;;;;;;;4453838;32;20434;-63
2024/04/08 12:06:49;;;;;;;8.57;3.40;;;;;;;;;;4452255;32;20052;-64
2024/04/08 12:09:14;;;;;;;7.68;3.22;;;;;;;;;;4450488;32;20073;-63
2024/04/08 12:11:39;;;;;;;6.20;3.10;;;;;;;;;;4438258;32;20074;-63
2024/04/08 12:14:04;;;;;;;4.00;3.13;;;;;;;;;;4436654;32;20391;-63
2024/04/08 12:16:30;;;;;;;5.10;2.67;;;;;;;;;;4437848;32;20117;-62
2024/04/08 12:18:55;;;;;;;5.22;2.80;;;;;;;;;;4437480;32;20018;-65
2024/04/08 12:21:20;;;;;;;5.22;2.83;;;;;;;;;;4437272;32;20018;-63
2024/04/08 12:23:45;;;;;;;7.32;3.47;;;;;;;;;;4451917;32;20060;-63
2024/04/08 12:26:13;;;;;;;9.18;3.15;;;;;;;;;;4436643;32;20044;-64
2024/04/08 12:28:38;;;;;;;6.10;3.17;;;;;;;;;;4438303;32;20051;-64
2024/04/08 12:31:04;;;;;;;8.95;4.07;;;;;;;;;;4450754;32;20072;-64
2024/04/08 12:33:29;;;;;;;6.32;2.97;;;;;;;;;;4453086;32;20021;-63
2024/04/08 12:35:54;;;;;;;10.95;3.72;;;;;;;;;;4453177;32;20047;-63
2024/04/08 12:38:19;;;;;;;4.93;2.55;;;;;;;;;;4451592;32;20025;-66
2024/04/08 12:40:45;;;;;;;7.60;3.35;;;;;;;;;;4452913;32;20048;-63
2024/04/08 12:43:10;;;;;;;4.43;2.37;;;;;;;;;;4453013;32;20425;-64
2024/04/08 12:45:36;;;;;;;5.50;3.08;;;;;;;;;;4453342;32;20157;-63
2024/04/08 12:48:01;;;;;;;5.45;3.30;;;;;;;;;;4451475;32;20452;-63
2024/04/08 12:50:26;;;;;;;6.50;2.75;;;;;;;;;;4452569;32;20057;-63
2024/04/08 12:52:51;;;;;;;7.35;2.85;;;;;;;;;;4452515;32;20064;-65
2024/04/08 12:55:17;;;;;;;5.55;3.28;;;;;;;;;;4452302;32;20025;-62
2024/04/08 12:57:42;;;;;;;4.93;2.73;;;;;;;;;;4452651;32;20026;-63
2024/04/08 13:00:09;;;;;;;6.45;3.17;;;;;;;;;;4452256;32;20581;-64
2024/04/08 13:02:35;;;;;;;8.13;3.45;;;;;;;;;;4451388;32;20410;-64
2024/04/08 13:05:00;;;;;;;5.05;3.08;;;;;;;;;;4442562;32;20033;-63
2024/04/08 13:07:26;;;;;;;4.63;3.17;;;;;;;;;;4435772;32;20483;-64
2024/04/08 13:09:53;;;;;;;7.22;3.40;;;;;;;;;;4451126;32;20154;-63
2024/04/08 13:12:20;;;;;;;5.80;3.55;;;;;;;;;;4452515;32;20052;-64
2024/04/08 13:14:45;;;;;;;6.47;3.42;;;;;;;;;;4451316;32;20055;-65
2024/04/08 13:17:10;;;;;;;6.05;3.80;;;;;;;;;;4452984;32;20022;-63
2024/04/08 13:19:35;;;;;;;6.60;3.30;;;;;;;;;;4446483;32;20470;-63
2024/04/08 13:22:01;;;;;;;5.43;3.57;;;;;;;;;;4443847;32;20056;-64
2024/04/08 13:24:27;;;;;;;9.75;4.72;;;;;;;;;;4452561;32;20470;-63
2024/04/08 13:26:52;;;;;;;7.03;3.80;;;;;;;;;;4451854;32;20025;-64
2024/04/08 13:29:18;;;;;;;6.47;3.20;;;;;;;;;;4452058;32;20052;-65
2024/04/08 13:31:43;;;;;;;8.35;4.47;;;;;;;;;;4449560;32;20469;-65
2024/04/08 13:34:08;;;;;;;9.93;4.15;;;;;;;;;;4440815;32;20097;-64
2024/04/08 13:36:34;;;;;;;4.12;2.92;;;;;;;;;;4433901;32;20386;-64
2024/04/08 13:39:00;;;;;;;5.87;3.80;;;;;;;;;;4435241;32;20129;-64
2024/04/08 13:41:25;;;;;;;5.90;4.15;;;;;;;;;;4435120;32;20398;-64
2024/04/08 13:43:50;;;;;;;5.03;2.78;;;;;;;;;;4437976;32;20414;-63
2024/04/08 13:46:15;;;;;;;6.25;3.08;;;;;;;;;;4440948;32;20422;-63
2024/04/08 13:48:41;;;;;;;6.60;3.12;;;;;;;;;;4443944;32;20045;-63
2024/04/08 13:51:08;;;;;;;5.35;3.37;;;;;;;;;;4437917;32;20065;-64
2024/04/08 13:53:33;;;;;;;6.20;3.08;;;;;;;;;;4451966;32;20044;-63
2024/04/08 13:56:01;;;;;;;6.47;2.87;;;;;;;;;;4448876;32;20047;-63
2024/04/08 13:58:27;;;;;;;6.15;3.12;;;;;;;;;;4447910;32;20025;-65
2024/04/08 14:00:52;;;;;;;3.83;2.20;;;;;;;;;;4441621;32;20066;-64
2024/04/08 14:03:17;;;;;;;6.90;3.17;;;;;;;;;;4450150;32;20055;-65
2024/04/08 14:05:43;;;;;;;4.95;2.72;;;;;;;;;;4451507;32;20021;-64
2024/04/08 14:08:08;;;;;;;4.47;2.28;;;;;;;;;;4446067;32;20082;-63
2024/04/08 14:10:33;;;;;;;8.85;2.60;;;;;;;;;;4435291;32;20410;-63
2024/04/08 14:12:59;;;;;;;3.78;2.03;;;;;;;;;;4433099;32;20033;-63
2024/04/08 14:15:24;;;;;;;3.25;2.45;;;;;;;;;;4436007;32;20059;-63
2024/04/08 14:17:49;;;;;;;3.85;2.22;;;;;;;;;;4435907;32;20101;-64
2024/04/08 14:20:14;;;;;;;3.67;1.70;;;;;;;;;;4451852;32;20333;-63
2024/04/08 14:22:39;;;;;;;5.30;1.80;;;;;;;;;;4433979;32;20144;-64